Time;durP1;ratioP1;P1;durP2;ratioP2;P2;SDS_P1;SDS_P2;PMS_P1;PMS_P2;Temp;Humidity;BMP_temperature;BMP_pressure;BME280_temperature;BME280_humidity;BME280_pressure;Samples;Min_cycle;Max_cycle;Signal;HPM_P1;HPM_P2
2023/11/01 00:01:31;;;;;;;;;;;15.50;92.20;;;;;;4153366;28;19994;-48
2023/11/01 00:04:12;;;;;;;;;;;15.50;92.20;;;;;;4170049;28;19932;-47
2023/11/01 00:06:53;;;;;;;;;;;15.50;92.30;;;;;;4163382;28;19936;-47
2023/11/01 00:09:34;;;;;;;;;;;15.50;92.30;;;;;;4185240;28;19935;-48
2023/11/01 00:12:15;;;;;;;;;;;15.50;92.40;;;;;;4181916;28;19995;-46
2023/11/01 00:25:40;;;;;;;;;;;15.50;92.40;;;;;;4238124;23;19978;-50
2023/11/01 00:28:21;;;;;;;;;;;15.50;92.40;;;;;;4059502;29;19946;-51
2023/11/01 00:31:01;;;;;;;;;;;15.40;92.40;;;;;;4058108;29;20271;-48
2023/11/01 00:33:43;;;;;;;;;;;15.40;92.40;;;;;;4046049;29;20386;-52
2023/11/01 00:36:24;;;;;;;;;;;15.40;92.40;;;;;;4045755;29;19934;-50
2023/11/01 00:39:05;;;;;;;;;;;15.40;92.40;;;;;;4045978;29;20404;-50
2023/11/01 00:41:47;;;;;;;;;;;15.50;92.40;;;;;;4045980;29;20058;-52
2023/11/01 00:44:28;;;;;;;;;;;15.40;92.80;;;;;;4057964;29;20290;-55
2023/11/01 00:47:08;;;;;;;;;;;15.40;92.40;;;;;;4046223;29;20286;-52
2023/11/01 00:49:49;;;;;;;;;;;15.40;92.40;;;;;;4046562;29;19934;-49
2023/11/01 00:52:30;;;;;;;;;;;15.40;92.30;;;;;;4046157;29;20516;-49
2023/11/01 00:55:11;;;;;;;;;;;15.40;92.30;;;;;;4057279;29;19942;-53
2023/11/01 00:57:53;;;;;;;;;;;15.30;92.30;;;;;;4058005;29;19938;-49
2023/11/01 01:00:35;;;;;;;;;;;15.30;92.30;;;;;;4057604;29;19938;-51
2023/11/01 01:03:16;;;;;;;;;;;15.30;92.30;;;;;;4059255;29;19933;-52
2023/11/01 01:05:57;;;;;;;;;;;15.30;92.30;;;;;;4060632;29;19954;-49
2023/11/01 01:08:38;;;;;;;;;;;15.30;92.20;;;;;;4048866;29;19933;-52
2023/11/01 01:11:19;;;;;;;;;;;15.30;92.30;;;;;;4049212;29;19934;-51
2023/11/01 01:14:02;;;;;;;;;;;15.30;92.30;;;;;;4060303;29;19934;-50
2023/11/01 01:16:43;;;;;;;;;;;15.30;92.30;;;;;;4059864;29;19985;-50
2023/11/01 01:19:24;;;;;;;;;;;15.30;92.20;;;;;;4048218;29;20046;-51
2023/11/01 01:22:05;;;;;;;;;;;15.40;92.20;;;;;;4048156;29;19982;-51
2023/11/01 01:24:45;;;;;;;;;;;15.40;92.10;;;;;;4059683;29;20297;-49
2023/11/01 01:27:26;;;;;;;;;;;15.40;92.50;;;;;;4059460;29;20018;-51
2023/11/01 01:30:09;;;;;;;;;;;15.40;92.10;;;;;;4048420;29;19934;-49
2023/11/01 01:32:50;;;;;;;;;;;15.40;92.00;;;;;;4048156;29;20294;-50
2023/11/01 01:35:31;;;;;;;;;;;15.50;92.00;;;;;;4059521;29;19934;-52
2023/11/01 01:38:12;;;;;;;;;;;15.50;92.00;;;;;;4059831;29;20120;-53
2023/11/01 01:40:53;;;;;;;;;;;15.50;92.00;;;;;;4037083;29;19941;-50
2023/11/01 01:43:34;;;;;;;;;;;15.50;92.00;;;;;;4047571;29;19933;-49
2023/11/01 01:46:17;;;;;;;;;;;15.50;92.00;;;;;;4047656;29;20520;-51
2023/11/01 01:48:58;;;;;;;;;;;15.50;92.00;;;;;;4059074;29;19997;-52
2023/11/01 01:51:39;;;;;;;;;;;15.50;92.00;;;;;;4059626;29;19990;-50
2023/11/01 01:54:20;;;;;;;;;;;15.50;92.00;;;;;;4058954;29;19934;-52
2023/11/01 01:57:01;;;;;;;;;;;15.50;92.10;;;;;;4059462;29;20070;-51
2023/11/01 01:59:41;;;;;;;;;;;15.50;92.00;;;;;;4048376;29;19982;-50
2023/11/01 02:02:25;;;;;;;;;;;15.50;92.00;;;;;;4059962;29;20449;-48
2023/11/01 02:05:06;;;;;;;;;;;15.60;92.10;;;;;;4059218;29;20066;-49
2023/11/01 02:07:47;;;;;;;;;;;15.50;92.00;;;;;;4059359;29;19945;-48
2023/11/01 02:10:28;;;;;;;;;;;15.60;92.00;;;;;;4047277;29;19934;-49
2023/11/01 02:13:09;;;;;;;;;;;15.60;92.00;;;;;;4058806;29;19938;-49
2023/11/01 02:15:50;;;;;;;;;;;15.70;92.00;;;;;;4058813;29;19938;-49
2023/11/01 02:18:32;;;;;;;;;;;15.70;91.90;;;;;;4036656;29;19934;-49
2023/11/01 02:21:13;;;;;;;;;;;15.70;91.90;;;;;;4047290;29;19938;-49
2023/11/01 02:23:56;;;;;;;;;;;15.70;91.80;;;;;;4047267;29;20301;-47
2023/11/01 02:26:37;;;;;;;;;;;15.70;91.80;;;;;;4047632;29;19934;-48
2023/11/01 02:29:17;;;;;;;;;;;15.80;91.80;;;;;;4047587;29;19937;-47
2023/11/01 02:31:58;;;;;;;;;;;15.80;91.70;;;;;;4059572;29;19935;-47
2023/11/01 02:34:39;;;;;;;;;;;15.80;91.60;;;;;;4058827;29;19933;-46
2023/11/01 02:37:19;;;;;;;;;;;15.90;91.60;;;;;;4058927;29;20520;-47
2023/11/01 02:40:01;;;;;;;;;;;15.90;91.60;;;;;;4059542;29;19934;-48
2023/11/01 02:42:44;;;;;;;;;;;15.80;91.90;;;;;;4058913;29;19933;-46
2023/11/01 02:45:25;;;;;;;;;;;15.90;91.50;;;;;;4047080;29;19934;-45
2023/11/01 02:48:06;;;;;;;;;;;15.80;91.50;;;;;;4059051;29;20013;-46
2023/11/01 02:50:47;;;;;;;;;;;15.90;91.50;;;;;;4047437;29;19977;-47
2023/11/01 02:53:27;;;;;;;;;;;15.90;91.50;;;;;;4058636;29;20029;-54
2023/11/01 02:56:10;;;;;;;;;;;15.90;91.50;;;;;;4046484;29;19938;-47
2023/11/01 02:58:51;;;;;;;;;;;15.90;91.90;;;;;;4059398;29;19973;-49
2023/11/01 03:01:32;;;;;;;;;;;15.90;91.50;;;;;;4058667;29;19934;-50
2023/11/01 03:04:13;;;;;;;;;;;15.90;91.40;;;;;;4046629;29;19938;-53
2023/11/01 03:06:54;;;;;;;;;;;15.80;91.80;;;;;;4047157;29;19938;-50
2023/11/01 03:09:35;;;;;;;;;;;15.80;91.40;;;;;;4054468;29;19988;-52
2023/11/01 03:12:17;;;;;;;;;;;15.80;91.50;;;;;;4052322;29;19942;-51
2023/11/01 03:14:57;;;;;;;;;;;15.80;91.50;;;;;;4058477;29;19986;-53
2023/11/01 03:17:38;;;;;;;;;;;15.80;91.50;;;;;;4058459;29;20350;-53
2023/11/01 03:20:19;;;;;;;;;;;15.80;91.60;;;;;;4045983;29;19938;-49
2023/11/01 03:23:00;;;;;;;;;;;15.80;91.60;;;;;;4031266;29;19935;-50
2023/11/01 03:25:42;;;;;;;;;;;15.80;92.10;;;;;;4042329;29;20023;-49
2023/11/01 03:28:24;;;;;;;;;;;15.80;91.60;;;;;;4042803;29;20279;-51
2023/11/01 03:31:06;;;;;;;;;;;15.90;91.60;;;;;;4031075;29;20030;-50
2023/11/01 03:33:47;;;;;;;;;;;15.90;91.60;;;;;;4043360;29;19982;-51
2023/11/01 03:36:28;;;;;;;;;;;15.90;91.60;;;;;;4030843;29;19981;-48
2023/11/01 03:39:09;;;;;;;;;;;15.90;91.60;;;;;;4042841;29;19950;-52
2023/11/01 03:41:50;;;;;;;;;;;15.90;91.60;;;;;;4031347;29;20511;-52
2023/11/01 03:44:33;;;;;;;;;;;15.90;91.50;;;;;;4042911;29;20013;-50
2023/11/01 03:47:14;;;;;;;;;;;15.90;91.50;;;;;;4041615;29;19934;-51
2023/11/01 03:49:55;;;;;;;;;;;15.90;91.50;;;;;;4047996;29;19934;-50
2023/11/01 03:52:35;;;;;;;;;;;15.90;91.50;;;;;;4058119;29;19953;-51
2023/11/01 03:55:16;;;;;;;;;;;15.90;91.50;;;;;;4057529;29;19962;-52
2023/11/01 03:57:57;;;;;;;;;;;15.90;91.50;;;;;;4057892;29;20370;-53
2023/11/01 04:00:39;;;;;;;;;;;15.90;91.60;;;;;;4036152;29;19942;-47
2023/11/01 04:03:20;;;;;;;;;;;15.80;91.60;;;;;;4042796;29;19983;-49
2023/11/01 04:06:01;;;;;;;;;;;15.80;92.00;;;;;;4042883;29;19978;-52
2023/11/01 04:08:41;;;;;;;;;;;15.90;91.70;;;;;;4042518;29;19935;-46
2023/11/01 04:11:22;;;;;;;;;;;15.90;91.70;;;;;;4049615;29;20286;-48
2023/11/01 04:14:03;;;;;;;;;;;15.90;91.70;;;;;;4058332;29;19978;-49
2023/11/01 04:16:46;;;;;;;;;;;15.90;91.60;;;;;;4057356;29;19934;-48
2023/11/01 04:19:27;;;;;;;;;;;16.00;91.60;;;;;;4041530;29;20483;-49
2023/11/01 04:22:08;;;;;;;;;;;16.00;91.60;;;;;;4042592;29;20062;-50
2023/11/01 04:24:49;;;;;;;;;;;16.00;91.60;;;;;;4042071;29;19939;-49
2023/11/01 04:27:29;;;;;;;;;;;16.00;91.60;;;;;;4042891;29;19934;-48
2023/11/01 04:30:10;;;;;;;;;;;16.00;91.50;;;;;;4058285;29;19939;-49
2023/11/01 04:32:53;;;;;;;;;;;16.00;91.50;;;;;;4058451;29;19937;-51
2023/11/01 04:35:34;;;;;;;;;;;16.10;91.60;;;;;;4057938;29;19935;-51
2023/11/01 04:38:18;;;;;;;;;;;16.10;91.50;;;;;;4059429;29;20297;-51
2023/11/01 04:40:59;;;;;;;;;;;16.10;91.50;;;;;;4047678;29;20056;-53
2023/11/01 04:43:40;;;;;;;;;;;16.10;91.50;;;;;;4044917;29;19935;-47
2023/11/01 04:46:21;;;;;;;;;;;16.10;91.50;;;;;;4045445;29;19935;-49
2023/11/01 04:49:04;;;;;;;;;;;16.10;91.50;;;;;;4058978;29;20074;-53
2023/11/01 04:51:44;;;;;;;;;;;16.10;91.50;;;;;;4060398;29;19933;-53
2023/11/01 04:54:25;;;;;;;;;;;16.10;91.50;;;;;;4060661;29;19934;-51
2023/11/01 04:57:06;;;;;;;;;;;16.10;91.60;;;;;;4060421;29;20001;-47
2023/11/01 04:59:47;;;;;;;;;;;16.10;91.60;;;;;;4044931;29;19935;-48
2023/11/01 05:02:28;;;;;;;;;;;16.10;91.60;;;;;;4044732;29;19934;-49
2023/11/01 05:05:11;;;;;;;;;;;16.10;91.60;;;;;;4044928;29;19934;-49
2023/11/01 05:07:52;;;;;;;;;;;16.10;91.60;;;;;;4045948;29;19938;-46
2023/11/01 05:10:33;;;;;;;;;;;16.10;91.60;;;;;;4060469;29;19938;-48
2023/11/01 05:13:13;;;;;;;;;;;16.10;91.60;;;;;;4060432;29;20037;-49
2023/11/01 05:15:55;;;;;;;;;;;16.10;92.00;;;;;;4060193;29;20063;-46
2023/11/01 05:18:36;;;;;;;;;;;16.10;91.70;;;;;;4052674;29;19935;-46
2023/11/01 05:21:18;;;;;;;;;;;16.10;92.10;;;;;;4032721;29;20018;-45
2023/11/01 05:23:59;;;;;;;;;;;16.10;91.70;;;;;;4044494;29;19935;-46
2023/11/01 05:26:40;;;;;;;;;;;16.20;91.70;;;;;;4048474;29;19937;-46
2023/11/01 05:29:20;;;;;;;;;;;16.20;92.00;;;;;;4060174;29;20018;-47
2023/11/01 05:32:01;;;;;;;;;;;16.20;91.70;;;;;;4059704;29;20390;-46
2023/11/01 05:34:41;;;;;;;;;;;16.20;91.70;;;;;;4048089;29;19938;-52
2023/11/01 05:37:24;;;;;;;;;;;16.20;91.60;;;;;;4058313;29;19938;-45
2023/11/01 05:40:12;;;;;;;;;;;16.30;91.70;;;;;;4059429;29;19986;-46
2023/11/01 05:42:54;;;;;;;;;;;16.20;91.60;;;;;;4047996;29;19942;-45
2023/11/01 05:45:35;;;;;;;;;;;16.20;91.60;;;;;;4059490;29;19938;-49
2023/11/01 05:48:16;;;;;;;;;;;16.20;91.70;;;;;;4043366;29;20051;-45
2023/11/01 05:50:57;;;;;;;;;;;16.20;91.70;;;;;;4043944;29;19943;-47
2023/11/01 05:53:39;;;;;;;;;;;16.20;91.60;;;;;;4043378;29;19934;-46
2023/11/01 05:56:21;;;;;;;;;;;16.30;91.60;;;;;;4047502;29;20476;-47
2023/11/01 05:59:03;;;;;;;;;;;16.30;92.00;;;;;;4059866;29;19938;-47
2023/11/01 06:01:44;;;;;;;;;;;16.30;91.60;;;;;;4059410;29;19938;-48
2023/11/01 06:04:24;;;;;;;;;;;16.20;91.60;;;;;;4058874;29;19934;-46
2023/11/01 06:07:05;;;;;;;;;;;16.30;92.10;;;;;;4058378;29;19938;-51
2023/11/01 06:09:47;;;;;;;;;;;16.20;91.80;;;;;;4043196;29;19982;-50
2023/11/01 06:12:28;;;;;;;;;;;16.20;91.90;;;;;;4043312;29;19937;-50
2023/11/01 06:15:10;;;;;;;;;;;16.20;91.90;;;;;;4043637;29;20031;-52
2023/11/01 06:17:52;;;;;;;;;;;16.20;92.00;;;;;;4042300;29;19938;-50
2023/11/01 06:20:32;;;;;;;;;;;16.20;91.90;;;;;;4043270;29;19934;-50
2023/11/01 06:23:13;;;;;;;;;;;16.30;91.90;;;;;;4044321;29;19983;-47
2023/11/01 06:25:55;;;;;;;;;;;16.30;91.80;;;;;;4046822;29;19934;-46
2023/11/01 06:28:36;;;;;;;;;;;16.30;91.80;;;;;;4046969;29;19938;-51
2023/11/01 06:31:19;;;;;;;;;;;16.30;91.70;;;;;;4059014;29;20302;-54
2023/11/01 06:34:00;;;;;;;;;;;16.30;91.70;;;;;;4044046;29;20013;-52
2023/11/01 06:36:42;;;;;;;;;;;16.30;91.70;;;;;;4030749;29;19981;-48
2023/11/01 06:39:23;;;;;;;;;;;16.30;91.70;;;;;;4031543;29;20434;-48
2023/11/01 06:42:06;;;;;;;;;;;16.20;91.70;;;;;;4043272;29;20023;-48
2023/11/01 06:44:46;;;;;;;;;;;16.20;91.80;;;;;;4047906;29;19981;-50
2023/11/01 06:47:27;;;;;;;;;;;16.20;92.20;;;;;;4059052;29;19934;-46
2023/11/01 06:50:09;;;;;;;;;;;16.10;91.80;;;;;;4047186;29;20445;-51
2023/11/01 06:52:50;;;;;;;;;;;16.10;91.90;;;;;;4059066;29;19938;-50
2023/11/01 06:55:30;;;;;;;;;;;16.10;91.90;;;;;;4058000;29;20102;-50
2023/11/01 06:58:12;;;;;;;;;;;16.20;91.90;;;;;;4043532;29;19955;-45
2023/11/01 07:00:53;;;;;;;;;;;16.20;91.90;;;;;;4041950;29;20022;-52
2023/11/01 07:03:34;;;;;;;;;;;16.20;91.90;;;;;;4042396;29;20378;-44
2023/11/01 07:06:15;;;;;;;;;;;16.20;91.90;;;;;;4042195;29;20361;-49
2023/11/01 07:08:56;;;;;;;;;;;16.20;92.00;;;;;;4047919;29;20066;-49
2023/11/01 07:11:37;;;;;;;;;;;16.30;91.90;;;;;;4059026;29;19954;-50
2023/11/01 07:14:19;;;;;;;;;;;16.30;92.20;;;;;;4057504;29;20490;-50
2023/11/01 07:17:01;;;;;;;;;;;16.40;91.80;;;;;;4050727;29;19954;-48
2023/11/01 07:19:41;;;;;;;;;;;16.40;91.70;;;;;;4042208;29;19938;-48
2023/11/01 07:22:22;;;;;;;;;;;16.40;91.70;;;;;;4034514;29;19974;-52
2023/11/01 07:25:04;;;;;;;;;;;16.40;91.60;;;;;;4046982;29;20014;-50
2023/11/01 07:27:44;;;;;;;;;;;16.40;91.60;;;;;;4058737;29;19988;-54
2023/11/01 07:30:26;;;;;;;;;;;16.40;92.00;;;;;;4043911;29;20294;-51
2023/11/01 07:33:07;;;;;;;;;;;16.40;91.60;;;;;;4031009;29;19935;-50
2023/11/01 07:35:48;;;;;;;;;;;16.40;91.60;;;;;;4031158;29;19938;-50
2023/11/01 07:38:29;;;;;;;;;;;16.40;91.60;;;;;;4042062;29;19939;-51
2023/11/01 07:41:10;;;;;;;;;;;16.40;91.50;;;;;;4057200;29;19934;-49
2023/11/01 07:43:50;;;;;;;;;;;16.40;91.60;;;;;;4052524;29;19939;-47
2023/11/01 07:46:33;;;;;;;;;;;16.40;91.70;;;;;;4046309;29;19933;-48
2023/11/01 07:49:13;;;;;;;;;;;16.40;91.70;;;;;;4053753;29;19938;-50
2023/11/01 07:51:55;;;;;;;;;;;16.40;91.80;;;;;;4042089;29;19935;-50
2023/11/01 07:54:36;;;;;;;;;;;16.30;91.80;;;;;;4041997;29;19968;-52
2023/11/01 07:57:19;;;;;;;;;;;16.30;91.90;;;;;;4042627;29;20089;-50
2023/11/01 08:00:00;;;;;;;;;;;16.30;91.90;;;;;;4042496;29;19935;-50
2023/11/01 08:02:43;;;;;;;;;;;16.20;91.90;;;;;;4042194;29;20342;-51
2023/11/01 08:05:24;;;;;;;;;;;16.20;92.00;;;;;;4042282;29;20071;-47
2023/11/01 08:08:05;;;;;;;;;;;16.20;92.00;;;;;;4042320;29;19983;-49
2023/11/01 08:10:46;;;;;;;;;;;16.10;92.10;;;;;;4041459;29;19978;-46
2023/11/01 08:13:27;;;;;;;;;;;16.10;92.20;;;;;;4037230;29;20417;-47
2023/11/01 08:16:08;;;;;;;;;;;16.10;92.30;;;;;;4044981;29;19938;-49
2023/11/01 08:18:50;;;;;;;;;;;16.00;92.20;;;;;;4044833;29;19939;-46
2023/11/01 08:21:32;;;;;;;;;;;16.00;92.30;;;;;;4045006;29;19949;-48
2023/11/01 08:24:12;;;;;;;;;;;16.00;92.30;;;;;;4044368;29;19982;-46
2023/11/01 08:26:53;;;;;;;;;;;16.00;92.40;;;;;;4057364;29;20449;-50
2023/11/01 08:29:35;;;;;;;;;;;16.00;92.40;;;;;;4060566;29;19939;-47
2023/11/01 08:32:16;;;;;;;;;;;15.90;92.40;;;;;;4060802;29;19938;-48
2023/11/01 08:34:58;;;;;;;;;;;15.90;92.50;;;;;;4058921;29;20102;-46
2023/11/01 08:37:39;;;;;;;;;;;15.90;92.90;;;;;;4060708;29;19938;-46
2023/11/01 08:40:20;;;;;;;;;;;15.80;92.60;;;;;;4060584;29;20491;-46
2023/11/01 08:43:01;;;;;;;;;;;15.80;92.60;;;;;;4054087;29;20022;-46
2023/11/01 08:45:42;;;;;;;;;;;15.80;92.60;;;;;;4056143;29;19934;-52
2023/11/01 08:48:23;;;;;;;;;;;15.80;92.60;;;;;;4059163;29;19970;-47
2023/11/01 08:51:07;;;;;;;;;;;15.80;92.70;;;;;;4033163;29;19934;-47
2023/11/01 08:53:48;;;;;;;;;;;15.80;92.70;;;;;;4045258;29;20310;-49
2023/11/01 08:56:29;;;;;;;;;;;15.80;92.80;;;;;;4044882;29;19943;-52
2023/11/01 08:59:10;;;;;;;;;;;15.70;92.80;;;;;;4045118;29;20034;-53
2023/11/01 09:01:51;;;;;;;;;;;15.70;92.90;;;;;;4043845;29;19934;-47
2023/11/01 09:04:36;;;;;;;;;;;15.70;92.90;;;;;;4053987;29;20402;-45
2023/11/01 09:07:19;;;;;;;;;;;15.70;93.00;;;;;;4044621;29;19938;-47
2023/11/01 09:09:59;;;;;;;;;;;15.70;93.00;;;;;;4052168;29;19977;-46
2023/11/01 09:12:42;;;;;;;;;;;15.70;93.00;;;;;;4055926;29;19937;-46
2023/11/01 09:15:23;;;;;;;;;;;15.70;93.10;;;;;;4044125;29;20083;-46
2023/11/01 09:18:04;;;;;;;;;;;15.70;93.10;;;;;;4044510;29;19934;-46
2023/11/01 09:20:44;;;;;;;;;;;15.60;93.50;;;;;;4044469;29;20279;-45
2023/11/01 09:23:26;;;;;;;;;;;15.60;93.20;;;;;;4044395;29;20275;-45
2023/11/01 09:26:09;;;;;;;;;;;15.60;93.20;;;;;;4042935;29;20499;-47
2023/11/01 09:28:50;;;;;;;;;;;15.60;93.20;;;;;;4043876;29;19935;-50
2023/11/01 09:31:35;;;;;;;;;;;15.60;93.60;;;;;;4044469;29;19934;-47
2023/11/01 09:34:16;;;;;;;;;;;15.60;93.20;;;;;;4043831;29;19939;-50
2023/11/01 09:36:56;;;;;;;;;;;15.60;93.20;;;;;;4032407;29;20083;-47
2023/11/01 09:39:39;;;;;;;;;;;15.60;93.30;;;;;;4047170;29;19975;-47
2023/11/01 09:42:21;;;;;;;;;;;15.60;93.30;;;;;;4058830;29;19937;-48
2023/11/01 09:45:02;;;;;;;;;;;15.60;93.30;;;;;;4048180;29;20361;-47
2023/11/01 09:47:43;;;;;;;;;;;15.60;93.40;;;;;;4059793;29;19938;-46
2023/11/01 09:50:24;;;;;;;;;;;15.60;93.40;;;;;;4058756;29;19934;-46
2023/11/01 09:53:05;;;;;;;;;;;15.60;93.40;;;;;;4044021;29;20665;-48
2023/11/01 09:55:48;;;;;;;;;;;15.60;93.40;;;;;;4043860;29;19998;-47
2023/11/01 09:58:29;;;;;;;;;;;15.60;93.40;;;;;;4043478;29;20646;-46
2023/11/01 10:01:10;;;;;;;;;;;15.60;93.40;;;;;;4035553;29;19971;-48
2023/11/01 10:03:51;;;;;;;;;;;15.60;93.40;;;;;;4043701;29;19935;-48
2023/11/01 10:06:33;;;;;;;;;;;15.60;93.50;;;;;;4042657;29;19937;-51
2023/11/01 10:09:14;;;;;;;;;;;15.60;93.50;;;;;;4043797;29;20040;-46
2023/11/01 10:11:58;;;;;;;;;;;15.50;93.50;;;;;;4043360;29;19978;-46
2023/11/01 10:14:40;;;;;;;;;;;15.50;93.50;;;;;;4043628;29;19935;-47
2023/11/01 10:17:21;;;;;;;;;;;15.50;93.60;;;;;;4043248;29;20063;-46
2023/11/01 10:20:04;;;;;;;;;;;15.50;93.60;;;;;;4042747;29;19945;-46
2023/11/01 10:22:45;;;;;;;;;;;15.50;93.70;;;;;;4043148;29;19958;-46
2023/11/01 10:25:26;;;;;;;;;;;15.50;93.70;;;;;;4042772;29;19938;-46
2023/11/01 10:28:12;;;;;;;;;;;15.60;93.80;;;;;;4042626;29;19938;-49
2023/11/01 10:30:53;;;;;;;;;;;15.50;93.80;;;;;;4047758;29;20350;-48
2023/11/01 10:33:34;;;;;;;;;;;15.60;93.80;;;;;;4058388;29;19938;-53
2023/11/01 10:36:17;;;;;;;;;;;15.60;93.90;;;;;;4058300;29;20302;-49
2023/11/01 10:38:58;;;;;;;;;;;15.60;93.90;;;;;;4058885;29;19954;-47
2023/11/01 10:41:39;;;;;;;;;;;15.60;94.00;;;;;;4052504;29;19938;-48
2023/11/01 10:44:22;;;;;;;;;;;15.60;94.00;;;;;;4053361;29;19938;-47
2023/11/01 10:47:03;;;;;;;;;;;15.60;94.00;;;;;;4058288;29;19934;-48
2023/11/01 10:49:45;;;;;;;;;;;15.60;94.00;;;;;;4055523;29;19990;-48
2023/11/01 10:52:26;;;;;;;;;;;15.60;94.10;;;;;;4054503;29;19934;-49
2023/11/01 10:55:08;;;;;;;;;;;15.60;94.10;;;;;;4057812;29;19934;-47
2023/11/01 10:57:50;;;;;;;;;;;15.60;94.20;;;;;;4046492;29;20013;-46
2023/11/01 11:00:35;;;;;;;;;;;15.60;94.20;;;;;;4057821;29;19938;-47
2023/11/01 11:03:20;;;;;;;;;;;15.60;94.60;;;;;;4042450;29;19934;-45
2023/11/01 11:06:08;;;;;;;;;;;15.60;94.20;;;;;;4032229;29;19935;-47
2023/11/01 11:09:04;;;;;;;;;;;15.60;94.20;;;;;;4042788;29;19938;-48
2023/11/01 11:12:13;;;;;;;;;;;15.60;94.30;;;;;;4043493;29;19939;-47
2023/11/01 11:14:54;;;;;;;;;;;15.60;94.30;;;;;;4041677;29;19982;-46
2023/11/01 11:17:38;;;;;;;;;;;15.60;94.40;;;;;;4042154;29;19938;-49
2023/11/01 11:20:29;;;;;;;;;;;15.60;94.40;;;;;;4042448;29;20484;-49
2023/11/01 11:23:13;;;;;;;;;;;15.60;94.40;;;;;;4047753;29;19953;-47
2023/11/01 11:25:53;;;;;;;;;;;15.70;94.50;;;;;;4056582;29;19982;-50
2023/11/01 11:28:42;;;;;;;;;;;15.70;94.50;;;;;;4035112;29;19939;-47
2023/11/01 11:31:25;;;;;;;;;;;15.70;94.50;;;;;;4057775;29;19935;-50
2023/11/01 11:34:13;;;;;;;;;;;15.70;94.50;;;;;;4046241;29;20342;-49
2023/11/01 11:37:08;;;;;;;;;;;15.70;94.50;;;;;;4042179;29;19935;-49
2023/11/01 11:40:00;;;;;;;;;;;15.70;94.60;;;;;;4041277;29;19934;-48
2023/11/01 11:42:49;;;;;;;;;;;15.70;95.00;;;;;;4052294;29;19935;-46
2023/11/01 11:45:30;;;;;;;;;;;15.70;94.60;;;;;;4042077;29;19943;-51
2023/11/01 11:48:26;;;;;;;;;;;15.70;94.70;;;;;;4042165;29;19939;-53
2023/11/01 11:51:08;;;;;;;;;;;15.70;94.60;;;;;;4030021;29;19965;-51
2023/11/01 11:53:49;;;;;;;;;;;15.70;94.70;;;;;;4042289;29;20014;-51
2023/11/01 11:56:30;;;;;;;;;;;15.70;94.70;;;;;;4042165;29;19934;-54
2023/11/01 11:59:11;;;;;;;;;;;15.70;94.70;;;;;;4070095;29;19937;-51
2023/11/01 12:01:53;;;;;;;;;;;15.70;94.70;;;;;;4061509;29;20578;-54
2023/11/01 12:04:34;;;;;;;;;;;15.70;94.70;;;;;;4057774;29;19978;-50
2023/11/01 12:07:19;;;;;;;;;;;15.80;94.70;;;;;;4057072;29;19938;-53
2023/11/01 12:10:02;;;;;;;;;;;15.80;94.70;;;;;;4058319;29;19982;-51
2023/11/01 12:12:53;;;;;;;;;;;15.80;94.70;;;;;;4056426;29;20387;-50
2023/11/01 12:15:40;;;;;;;;;;;15.80;94.70;;;;;;4057994;29;20322;-50
2023/11/01 12:18:23;;;;;;;;;;;15.80;94.70;;;;;;4056822;29;19938;-49
2023/11/01 12:21:14;;;;;;;;;;;15.80;95.10;;;;;;4056168;29;20274;-51
2023/11/01 12:23:56;;;;;;;;;;;15.80;94.70;;;;;;4056096;29;19937;-54
2023/11/01 12:26:52;;;;;;;;;;;15.80;94.70;;;;;;4057926;29;19934;-50
2023/11/01 12:29:37;;;;;;;;;;;15.80;94.60;;;;;;4053798;29;19934;-51
2023/11/01 12:32:19;;;;;;;;;;;15.80;95.00;;;;;;4052180;29;19946;-47
2023/11/01 12:35:04;;;;;;;;;;;15.80;94.70;;;;;;4040572;29;19951;-50
2023/11/01 12:37:46;;;;;;;;;;;15.80;94.70;;;;;;4052213;29;19938;-51
2023/11/01 12:40:28;;;;;;;;;;;15.80;94.90;;;;;;4043976;29;19937;-58
2023/11/01 12:43:11;;;;;;;;;;;15.90;95.10;;;;;;4043817;29;19982;-50
2023/11/01 12:45:52;;;;;;;;;;;15.90;95.20;;;;;;4045827;29;19938;-56
2023/11/01 12:48:33;;;;;;;;;;;16.00;95.10;;;;;;4048578;29;19938;-61
2023/11/01 12:51:15;;;;;;;;;;;16.00;95.10;;;;;;4041347;29;20037;-59
2023/11/01 12:53:58;;;;;;;;;;;16.10;95.00;;;;;;4039897;29;19939;-54
2023/11/01 12:56:41;;;;;;;;;;;16.00;94.90;;;;;;4053155;29;19942;-59
2023/11/01 12:59:22;;;;;;;;;;;16.10;95.30;;;;;;4044058;29;19935;-57
2023/11/01 13:02:03;;;;;;;;;;;16.10;94.90;;;;;;4042237;29;19990;-55
2023/11/01 13:04:44;;;;;;;;;;;16.10;94.90;;;;;;4057783;29;20502;-57
2023/11/01 13:07:25;;;;;;;;;;;16.10;95.30;;;;;;4033961;29;19938;-57
2023/11/01 13:10:09;;;;;;;;;;;16.10;94.90;;;;;;4057812;29;19938;-58
2023/11/01 13:12:51;;;;;;;;;;;16.10;94.90;;;;;;4057591;29;19937;-53
2023/11/01 13:15:32;;;;;;;;;;;16.10;94.80;;;;;;4046358;29;19939;-53
2023/11/01 13:18:13;;;;;;;;;;;16.10;94.80;;;;;;4057388;29;19985;-56
2023/11/01 13:20:53;;;;;;;;;;;16.10;94.70;;;;;;4046849;29;19998;-55
2023/11/01 13:23:34;;;;;;;;;;;16.20;94.70;;;;;;4043023;29;20018;-54
2023/11/01 13:26:15;;;;;;;;;;;16.20;94.70;;;;;;4043112;29;19950;-52
2023/11/01 13:28:58;;;;;;;;;;;16.20;94.70;;;;;;4036071;29;20094;-56
2023/11/01 13:31:39;;;;;;;;;;;16.20;94.60;;;;;;4046387;29;19939;-54
2023/11/01 13:34:21;;;;;;;;;;;16.20;94.60;;;;;;4042390;29;20069;-56
2023/11/01 13:37:03;;;;;;;;;;;16.20;94.60;;;;;;4034486;29;19939;-54
2023/11/01 13:39:44;;;;;;;;;;;16.20;94.60;;;;;;4052876;29;19973;-53
2023/11/01 13:42:25;;;;;;;;;;;16.10;94.50;;;;;;4045422;29;19934;-56
2023/11/01 13:45:08;;;;;;;;;;;16.10;94.50;;;;;;4042346;29;20848;-54
2023/11/01 13:47:49;;;;;;;;;;;16.10;94.50;;;;;;4037374;29;19939;-54
2023/11/01 13:50:30;;;;;;;;;;;16.10;94.60;;;;;;4042542;29;19934;-57
2023/11/01 13:53:10;;;;;;;;;;;16.10;94.60;;;;;;4038107;29;19934;-55
2023/11/01 13:55:51;;;;;;;;;;;16.10;94.90;;;;;;4043391;29;20376;-56
2023/11/01 13:58:35;;;;;;;;;;;16.10;94.60;;;;;;4041508;29;19965;-56
2023/11/01 14:01:17;;;;;;;;;;;16.10;94.60;;;;;;4049411;29;19938;-53
2023/11/01 14:03:58;;;;;;;;;;;16.10;94.60;;;;;;4045709;29;19950;-54
2023/11/01 14:06:40;;;;;;;;;;;16.10;94.50;;;;;;4045168;29;19973;-53
2023/11/01 14:09:21;;;;;;;;;;;16.10;94.50;;;;;;4048272;29;19938;-53
2023/11/01 14:12:02;;;;;;;;;;;16.10;94.50;;;;;;4047951;29;19938;-52
2023/11/01 14:14:44;;;;;;;;;;;16.10;94.40;;;;;;4043380;29;19938;-52
2023/11/01 14:17:26;;;;;;;;;;;16.10;94.40;;;;;;4042608;29;20030;-51
2023/11/01 14:20:09;;;;;;;;;;;16.10;94.40;;;;;;4056218;29;19935;-52
2023/11/01 14:22:51;;;;;;;;;;;16.10;94.30;;;;;;4042178;29;19938;-51
2023/11/01 14:25:33;;;;;;;;;;;16.10;94.30;;;;;;4050496;29;20376;-51
2023/11/01 14:28:17;;;;;;;;;;;16.10;94.40;;;;;;4054506;29;20677;-53
2023/11/01 14:30:58;;;;;;;;;;;16.10;94.40;;;;;;4031109;29;20489;-50
2023/11/01 14:33:41;;;;;;;;;;;16.10;94.40;;;;;;4041403;29;20307;-53
2023/11/01 14:36:22;;;;;;;;;;;16.10;94.30;;;;;;4056058;29;20069;-53
2023/11/01 14:39:03;;;;;;;;;;;16.10;94.30;;;;;;4056461;29;20038;-56
2023/11/01 14:41:44;;;;;;;;;;;16.10;94.30;;;;;;4035718;29;19934;-54
2023/11/01 14:44:25;;;;;;;;;;;16.10;94.30;;;;;;4045454;29;19938;-55
2023/11/01 14:47:05;;;;;;;;;;;16.00;94.20;;;;;;4050043;29;20274;-56
2023/11/01 14:49:48;;;;;;;;;;;16.00;94.20;;;;;;4037232;29;20083;-56
2023/11/01 14:52:29;;;;;;;;;;;16.10;94.30;;;;;;4043066;29;20417;-53
2023/11/01 14:55:10;;;;;;;;;;;16.10;94.40;;;;;;4045147;29;19998;-58
2023/11/01 14:57:51;;;;;;;;;;;16.10;94.50;;;;;;4030030;29;20298;-57
2023/11/01 15:00:32;;;;;;;;;;;16.10;94.50;;;;;;4042741;29;20018;-57
2023/11/01 15:03:13;;;;;;;;;;;16.20;94.50;;;;;;4053573;29;19938;-59
2023/11/01 15:05:57;;;;;;;;;;;16.20;94.50;;;;;;4055769;29;20013;-59
2023/11/01 15:08:39;;;;;;;;;;;16.20;94.40;;;;;;4041049;29;20568;-60
2023/11/01 15:11:20;;;;;;;;;;;16.20;94.30;;;;;;4042227;29;20294;-59
2023/11/01 15:14:01;;;;;;;;;;;16.20;94.30;;;;;;4050772;29;19938;-57
2023/11/01 15:16:42;;;;;;;;;;;16.20;94.20;;;;;;4029088;29;19951;-53
2023/11/01 15:19:22;;;;;;;;;;;16.20;94.30;;;;;;4044560;29;19989;-56
2023/11/01 15:22:04;;;;;;;;;;;16.10;94.20;;;;;;4050924;29;20942;-51
2023/11/01 15:24:49;;;;;;;;;;;16.10;94.30;;;;;;4043830;29;19938;-59
2023/11/01 15:27:30;;;;;;;;;;;16.10;94.30;;;;;;4041803;29;20433;-60
2023/11/01 15:30:14;;;;;;;;;;;16.10;94.40;;;;;;4041813;29;19938;-59
2023/11/01 15:32:55;;;;;;;;;;;16.10;94.30;;;;;;4055279;29;20338;-59
2023/11/01 15:35:37;;;;;;;;;;;16.10;94.30;;;;;;4022177;29;19958;-59
2023/11/01 15:38:23;;;;;;;;;;;16.10;94.20;;;;;;3994438;29;19942;-59
2023/11/01 15:41:09;;;;;;;;;;;16.00;94.10;;;;;;4022315;29;24318;-50
2023/11/01 15:43:51;;;;;;;;;;;16.00;94.10;;;;;;4044374;29;19939;-52
2023/11/01 15:46:32;;;;;;;;;;;16.00;94.10;;;;;;4050988;29;19946;-51
2023/11/01 15:49:13;;;;;;;;;;;16.00;94.10;;;;;;4048102;29;19938;-52
2023/11/01 15:51:54;;;;;;;;;;;16.00;94.10;;;;;;4046904;29;19994;-52